sensor_id;sensor_type;location;lat;lon;timestamp;P1;durP1;ratioP1;P2;durP2;ratioP2
43519;SDS011;46848;51.980;5.918;2023-02-15T00:00:15;31.57;;;20.80;;
43519;SDS011;46848;51.980;5.918;2023-02-15T00:02:41;33.83;;;20.93;;
43519;SDS011;46848;51.980;5.918;2023-02-15T00:05:07;34.63;;;20.80;;
43519;SDS011;46848;51.980;5.918;2023-02-15T00:07:33;33.47;;;21.80;;
43519;SDS011;46848;51.980;5.918;2023-02-15T00:09:59;31.23;;;20.83;;
43519;SDS011;46848;51.980;5.918;2023-02-15T00:12:25;34.97;;;22.77;;
43519;SDS011;46848;51.980;5.918;2023-02-15T00:14:50;34.40;;;21.47;;
43519;SDS011;46848;51.980;5.918;2023-02-15T00:17:16;31.87;;;20.67;;
43519;SDS011;46848;51.980;5.918;2023-02-15T00:19:41;34.73;;;21.27;;
43519;SDS011;46848;51.980;5.918;2023-02-15T00:22:07;35.40;;;21.33;;
43519;SDS011;46848;51.980;5.918;2023-02-15T00:24:33;33.60;;;21.43;;
43519;SDS011;46848;51.980;5.918;2023-02-15T00:26:58;34.80;;;20.67;;
43519;SDS011;46848;51.980;5.918;2023-02-15T00:29:24;34.10;;;21.67;;
43519;SDS011;46848;51.980;5.918;2023-02-15T00:31:50;33.30;;;20.60;;
43519;SDS011;46848;51.980;5.918;2023-02-15T00:34:18;28.87;;;19.80;;
43519;SDS011;46848;51.980;5.918;2023-02-15T00:36:45;30.87;;;21.13;;
43519;SDS011;46848;51.980;5.918;2023-02-15T00:39:11;32.27;;;20.87;;
43519;SDS011;46848;51.980;5.918;2023-02-15T00:41:37;32.47;;;20.80;;
43519;SDS011;46848;51.980;5.918;2023-02-15T00:44:03;34.93;;;21.73;;
43519;SDS011;46848;51.980;5.918;2023-02-15T00:46:30;32.90;;;20.53;;
43519;SDS011;46848;51.980;5.918;2023-02-15T00:48:55;31.00;;;20.90;;
43519;SDS011;46848;51.980;5.918;2023-02-15T00:51:21;35.93;;;22.30;;
43519;SDS011;46848;51.980;5.918;2023-02-15T00:53:47;33.43;;;21.97;;
43519;SDS011;46848;51.980;5.918;2023-02-15T00:56:13;35.63;;;23.17;;
43519;SDS011;46848;51.980;5.918;2023-02-15T00:58:39;34.43;;;22.90;;
43519;SDS011;46848;51.980;5.918;2023-02-15T01:01:06;36.57;;;23.07;;
43519;SDS011;46848;51.980;5.918;2023-02-15T01:03:33;35.10;;;22.20;;
43519;SDS011;46848;51.980;5.918;2023-02-15T01:05:59;35.40;;;22.07;;
43519;SDS011;46848;51.980;5.918;2023-02-15T01:08:25;35.50;;;23.33;;
43519;SDS011;46848;51.980;5.918;2023-02-15T01:10:51;33.73;;;22.10;;
43519;SDS011;46848;51.980;5.918;2023-02-15T01:13:18;31.53;;;20.83;;
43519;SDS011;46848;51.980;5.918;2023-02-15T01:15:43;34.07;;;20.60;;
43519;SDS011;46848;51.980;5.918;2023-02-15T01:18:10;35.67;;;22.40;;
43519;SDS011;46848;51.980;5.918;2023-02-15T01:20:37;33.10;;;21.73;;
43519;SDS011;46848;51.980;5.918;2023-02-15T01:23:06;32.83;;;21.60;;
43519;SDS011;46848;51.980;5.918;2023-02-15T01:25:32;35.80;;;22.63;;
43519;SDS011;46848;51.980;5.918;2023-02-15T01:28:00;33.33;;;21.13;;
43519;SDS011;46848;51.980;5.918;2023-02-15T01:30:26;37.33;;;23.07;;
43519;SDS011;46848;51.980;5.918;2023-02-15T01:32:51;35.07;;;21.53;;
43519;SDS011;46848;51.980;5.918;2023-02-15T01:35:17;36.43;;;21.50;;
43519;SDS011;46848;51.980;5.918;2023-02-15T01:37:43;33.63;;;21.27;;
43519;SDS011;46848;51.980;5.918;2023-02-15T01:40:12;34.87;;;21.80;;
43519;SDS011;46848;51.980;5.918;2023-02-15T01:42:40;34.45;;;21.20;;
43519;SDS011;46848;51.980;5.918;2023-02-15T01:47:54;31.80;;;19.97;;
43519;SDS011;46848;51.980;5.918;2023-02-15T01:52:51;29.30;;;19.33;;
43519;SDS011;46848;51.980;5.918;2023-02-15T01:55:24;32.00;;;20.67;;
43519;SDS011;46848;51.980;5.918;2023-02-15T01:57:53;29.40;;;19.00;;
43519;SDS011;46848;51.980;5.918;2023-02-15T02:00:19;29.47;;;19.97;;
43519;SDS011;46848;51.980;5.918;2023-02-15T02:02:46;30.37;;;18.77;;
43519;SDS011;46848;51.980;5.918;2023-02-15T02:05:16;31.37;;;19.83;;
43519;SDS011;46848;51.980;5.918;2023-02-15T02:07:42;30.43;;;19.13;;
43519;SDS011;46848;51.980;5.918;2023-02-15T02:10:12;29.20;;;18.47;;
43519;SDS011;46848;51.980;5.918;2023-02-15T02:12:40;28.27;;;19.23;;
43519;SDS011;46848;51.980;5.918;2023-02-15T02:15:08;27.67;;;18.70;;
43519;SDS011;46848;51.980;5.918;2023-02-15T02:17:42;30.17;;;19.20;;
43519;SDS011;46848;51.980;5.918;2023-02-15T02:29:25;29.50;;;18.63;;
43519;SDS011;46848;51.980;5.918;2023-02-15T02:34:35;34.17;;;20.70;;
43519;SDS011;46848;51.980;5.918;2023-02-15T02:37:19;34.03;;;21.07;;
43519;SDS011;46848;51.980;5.918;2023-02-15T02:40:42;36.33;;;21.97;;
43519;SDS011;46848;51.980;5.918;2023-02-15T02:45:59;33.07;;;19.47;;
43519;SDS011;46848;51.980;5.918;2023-02-15T02:48:36;32.30;;;19.73;;
43519;SDS011;46848;51.980;5.918;2023-02-15T02:51:03;30.40;;;18.63;;
43519;SDS011;46848;51.980;5.918;2023-02-15T02:53:29;33.73;;;19.43;;
43519;SDS011;46848;51.980;5.918;2023-02-15T02:55:57;31.17;;;19.10;;
43519;SDS011;46848;51.980;5.918;2023-02-15T02:58:31;33.20;;;20.55;;
43519;SDS011;46848;51.980;5.918;2023-02-15T03:01:14;34.67;;;19.83;;
43519;SDS011;46848;51.980;5.918;2023-02-15T03:03:47;33.00;;;19.60;;
43519;SDS011;46848;51.980;5.918;2023-02-15T03:06:52;32.47;;;18.33;;
43519;SDS011;46848;51.980;5.918;2023-02-15T03:09:18;33.87;;;18.57;;
43519;SDS011;46848;51.980;5.918;2023-02-15T03:12:06;28.53;;;17.93;;
43519;SDS011;46848;51.980;5.918;2023-02-15T03:14:38;29.08;;;18.25;;
43519;SDS011;46848;51.980;5.918;2023-02-15T03:17:07;28.90;;;17.57;;
43519;SDS011;46848;51.980;5.918;2023-02-15T03:19:34;31.20;;;17.57;;
43519;SDS011;46848;51.980;5.918;2023-02-15T03:22:10;31.97;;;19.30;;
43519;SDS011;46848;51.980;5.918;2023-02-15T03:24:49;30.55;;;18.48;;
43519;SDS011;46848;51.980;5.918;2023-02-15T03:27:35;29.97;;;17.70;;
43519;SDS011;46848;51.980;5.918;2023-02-15T03:30:11;27.87;;;18.20;;
43519;SDS011;46848;51.980;5.918;2023-02-15T03:32:39;28.40;;;17.67;;
43519;SDS011;46848;51.980;5.918;2023-02-15T03:35:07;30.57;;;17.70;;
43519;SDS011;46848;51.980;5.918;2023-02-15T03:37:35;30.10;;;17.80;;
43519;SDS011;46848;51.980;5.918;2023-02-15T03:40:04;26.07;;;17.47;;
43519;SDS011;46848;51.980;5.918;2023-02-15T03:45:44;28.30;;;18.13;;
43519;SDS011;46848;51.980;5.918;2023-02-15T03:48:25;28.10;;;17.13;;
43519;SDS011;46848;51.980;5.918;2023-02-15T03:50:52;27.00;;;16.33;;
43519;SDS011;46848;51.980;5.918;2023-02-15T03:53:42;26.63;;;16.97;;
43519;SDS011;46848;51.980;5.918;2023-02-15T03:56:10;30.27;;;17.20;;
43519;SDS011;46848;51.980;5.918;2023-02-15T03:58:36;27.53;;;16.93;;
43519;SDS011;46848;51.980;5.918;2023-02-15T04:01:34;26.23;;;16.77;;
43519;SDS011;46848;51.980;5.918;2023-02-15T04:04:22;27.23;;;16.35;;
43519;SDS011;46848;51.980;5.918;2023-02-15T04:06:51;28.73;;;17.43;;
43519;SDS011;46848;51.980;5.918;2023-02-15T04:09:16;29.27;;;17.57;;
43519;SDS011;46848;51.980;5.918;2023-02-15T04:12:00;26.63;;;16.87;;
43519;SDS011;46848;51.980;5.918;2023-02-15T04:14:26;27.10;;;17.53;;
43519;SDS011;46848;51.980;5.918;2023-02-15T04:17:10;26.23;;;16.40;;
43519;SDS011;46848;51.980;5.918;2023-02-15T04:19:36;29.20;;;15.77;;
43519;SDS011;46848;51.980;5.918;2023-02-15T04:22:20;28.70;;;17.37;;
43519;SDS011;46848;51.980;5.918;2023-02-15T04:25:04;25.17;;;15.50;;
43519;SDS011;46848;51.980;5.918;2023-02-15T04:27:37;25.90;;;15.20;;
43519;SDS011;46848;51.980;5.918;2023-02-15T04:30:04;25.77;;;16.00;;
43519;SDS011;46848;51.980;5.918;2023-02-15T04:32:30;26.13;;;16.90;;
43519;SDS011;46848;51.980;5.918;2023-02-15T04:34:56;25.87;;;16.47;;
43519;SDS011;46848;51.980;5.918;2023-02-15T04:37:21;24.00;;;15.60;;
43519;SDS011;46848;51.980;5.918;2023-02-15T04:39:47;22.77;;;14.17;;
43519;SDS011;46848;51.980;5.918;2023-02-15T04:42:13;25.97;;;15.77;;
43519;SDS011;46848;51.980;5.918;2023-02-15T04:44:39;26.80;;;16.57;;
43519;SDS011;46848;51.980;5.918;2023-02-15T04:47:04;24.03;;;16.20;;
43519;SDS011;46848;51.980;5.918;2023-02-15T04:49:30;28.57;;;16.90;;
43519;SDS011;46848;51.980;5.918;2023-02-15T04:51:55;26.57;;;17.00;;
43519;SDS011;46848;51.980;5.918;2023-02-15T04:54:21;23.67;;;15.90;;
43519;SDS011;46848;51.980;5.918;2023-02-15T04:56:47;23.87;;;15.43;;
43519;SDS011;46848;51.980;5.918;2023-02-15T04:59:12;24.20;;;15.63;;
43519;SDS011;46848;51.980;5.918;2023-02-15T05:01:38;26.90;;;16.53;;
43519;SDS011;46848;51.980;5.918;2023-02-15T05:04:04;24.10;;;15.10;;
43519;SDS011;46848;51.980;5.918;2023-02-15T05:06:29;22.70;;;15.10;;
43519;SDS011;46848;51.980;5.918;2023-02-15T05:08:55;24.90;;;16.23;;
43519;SDS011;46848;51.980;5.918;2023-02-15T05:11:23;26.13;;;16.80;;
43519;SDS011;46848;51.980;5.918;2023-02-15T05:13:49;28.17;;;17.37;;
43519;SDS011;46848;51.980;5.918;2023-02-15T05:16:15;27.00;;;17.17;;
43519;SDS011;46848;51.980;5.918;2023-02-15T05:18:40;25.23;;;15.40;;
43519;SDS011;46848;51.980;5.918;2023-02-15T05:21:06;23.07;;;15.37;;
43519;SDS011;46848;51.980;5.918;2023-02-15T05:23:31;27.67;;;15.93;;
43519;SDS011;46848;51.980;5.918;2023-02-15T05:25:57;25.80;;;16.63;;
43519;SDS011;46848;51.980;5.918;2023-02-15T05:28:41;28.87;;;17.50;;
43519;SDS011;46848;51.980;5.918;2023-02-15T05:31:11;26.10;;;16.47;;
43519;SDS011;46848;51.980;5.918;2023-02-15T05:33:42;24.70;;;16.20;;
43519;SDS011;46848;51.980;5.918;2023-02-15T05:36:09;26.30;;;16.87;;
43519;SDS011;46848;51.980;5.918;2023-02-15T05:38:34;25.30;;;15.57;;
43519;SDS011;46848;51.980;5.918;2023-02-15T05:41:06;27.73;;;16.37;;
43519;SDS011;46848;51.980;5.918;2023-02-15T05:43:33;22.10;;;14.20;;
43519;SDS011;46848;51.980;5.918;2023-02-15T05:46:00;23.67;;;14.87;;
43519;SDS011;46848;51.980;5.918;2023-02-15T05:48:26;28.33;;;15.53;;
43519;SDS011;46848;51.980;5.918;2023-02-15T05:50:59;26.10;;;16.23;;
43519;SDS011;46848;51.980;5.918;2023-02-15T05:53:38;25.43;;;15.90;;
43519;SDS011;46848;51.980;5.918;2023-02-15T05:56:04;24.87;;;15.90;;
43519;SDS011;46848;51.980;5.918;2023-02-15T05:58:33;26.50;;;16.63;;
43519;SDS011;46848;51.980;5.918;2023-02-15T06:01:16;26.83;;;15.93;;
43519;SDS011;46848;51.980;5.918;2023-02-15T06:03:44;24.13;;;15.23;;
43519;SDS011;46848;51.980;5.918;2023-02-15T06:06:10;26.57;;;15.93;;
43519;SDS011;46848;51.980;5.918;2023-02-15T06:08:36;24.93;;;15.60;;
43519;SDS011;46848;51.980;5.918;2023-02-15T06:11:03;26.17;;;16.57;;
43519;SDS011;46848;51.980;5.918;2023-02-15T06:13:29;26.00;;;16.30;;
43519;SDS011;46848;51.980;5.918;2023-02-15T06:15:55;27.73;;;16.67;;
43519;SDS011;46848;51.980;5.918;2023-02-15T06:18:21;21.40;;;14.97;;
43519;SDS011;46848;51.980;5.918;2023-02-15T06:20:47;27.17;;;16.27;;
43519;SDS011;46848;51.980;5.918;2023-02-15T06:23:13;25.43;;;15.63;;
43519;SDS011;46848;51.980;5.918;2023-02-15T06:25:39;25.23;;;15.63;;
43519;SDS011;46848;51.980;5.918;2023-02-15T06:28:05;24.60;;;15.33;;
43519;SDS011;46848;51.980;5.918;2023-02-15T06:30:30;25.07;;;15.53;;
43519;SDS011;46848;51.980;5.918;2023-02-15T06:32:56;26.90;;;16.23;;
43519;SDS011;46848;51.980;5.918;2023-02-15T06:35:22;26.53;;;16.77;;
43519;SDS011;46848;51.980;5.918;2023-02-15T06:37:48;26.60;;;17.03;;
43519;SDS011;46848;51.980;5.918;2023-02-15T06:40:13;28.37;;;16.70;;
43519;SDS011;46848;51.980;5.918;2023-02-15T06:42:41;26.50;;;16.43;;
43519;SDS011;46848;51.980;5.918;2023-02-15T06:45:07;24.83;;;15.20;;
43519;SDS011;46848;51.980;5.918;2023-02-15T06:47:33;28.77;;;18.23;;
43519;SDS011;46848;51.980;5.918;2023-02-15T06:49:59;27.83;;;17.57;;
43519;SDS011;46848;51.980;5.918;2023-02-15T06:52:25;28.60;;;17.47;;
43519;SDS011;46848;51.980;5.918;2023-02-15T06:54:51;30.00;;;18.67;;
43519;SDS011;46848;51.980;5.918;2023-02-15T06:57:16;30.57;;;19.50;;
43519;SDS011;46848;51.980;5.918;2023-02-15T06:59:42;26.40;;;17.60;;
43519;SDS011;46848;51.980;5.918;2023-02-15T07:02:08;27.40;;;17.90;;
43519;SDS011;46848;51.980;5.918;2023-02-15T07:04:36;30.33;;;17.73;;
43519;SDS011;46848;51.980;5.918;2023-02-15T07:07:01;28.63;;;18.37;;
43519;SDS011;46848;51.980;5.918;2023-02-15T07:09:27;28.23;;;18.03;;
43519;SDS011;46848;51.980;5.918;2023-02-15T07:11:53;27.43;;;16.57;;
43519;SDS011;46848;51.980;5.918;2023-02-15T07:14:37;26.77;;;16.83;;
43519;SDS011;46848;51.980;5.918;2023-02-15T07:17:02;26.40;;;16.77;;
43519;SDS011;46848;51.980;5.918;2023-02-15T07:19:28;26.77;;;16.63;;
43519;SDS011;46848;51.980;5.918;2023-02-15T07:21:54;26.73;;;16.03;;
43519;SDS011;46848;51.980;5.918;2023-02-15T07:24:19;24.53;;;15.53;;
43519;SDS011;46848;51.980;5.918;2023-02-15T07:26:45;32.00;;;20.23;;
43519;SDS011;46848;51.980;5.918;2023-02-15T07:29:10;27.97;;;17.27;;
43519;SDS011;46848;51.980;5.918;2023-02-15T07:31:36;28.37;;;17.53;;
43519;SDS011;46848;51.980;5.918;2023-02-15T07:34:02;30.23;;;17.70;;
43519;SDS011;46848;51.980;5.918;2023-02-15T07:36:27;26.63;;;16.03;;
43519;SDS011;46848;51.980;5.918;2023-02-15T07:38:53;30.33;;;18.43;;
43519;SDS011;46848;51.980;5.918;2023-02-15T07:41:18;24.80;;;16.00;;
43519;SDS011;46848;51.980;5.918;2023-02-15T07:43:44;28.17;;;16.50;;
43519;SDS011;46848;51.980;5.918;2023-02-15T07:46:11;22.43;;;15.23;;
43519;SDS011;46848;51.980;5.918;2023-02-15T07:48:39;25.80;;;15.83;;
43519;SDS011;46848;51.980;5.918;2023-02-15T07:51:06;24.47;;;16.67;;
43519;SDS011;46848;51.980;5.918;2023-02-15T07:53:34;23.40;;;15.90;;
43519;SDS011;46848;51.980;5.918;2023-02-15T07:56:01;23.57;;;15.40;;
43519;SDS011;46848;51.980;5.918;2023-02-15T07:58:28;24.80;;;15.80;;
43519;SDS011;46848;51.980;5.918;2023-02-15T08:01:12;24.10;;;16.77;;
43519;SDS011;46848;51.980;5.918;2023-02-15T08:03:38;27.13;;;17.90;;
43519;SDS011;46848;51.980;5.918;2023-02-15T08:06:04;30.70;;;16.90;;
43519;SDS011;46848;51.980;5.918;2023-02-15T08:08:29;24.07;;;16.40;;
43519;SDS011;46848;51.980;5.918;2023-02-15T08:10:59;25.13;;;16.07;;
43519;SDS011;46848;51.980;5.918;2023-02-15T08:14:09;26.67;;;16.37;;
43519;SDS011;46848;51.980;5.918;2023-02-15T08:21:52;28.13;;;17.90;;
43519;SDS011;46848;51.980;5.918;2023-02-15T08:24:20;26.70;;;17.23;;
43519;SDS011;46848;51.980;5.918;2023-02-15T08:26:47;24.47;;;16.30;;
43519;SDS011;46848;51.980;5.918;2023-02-15T08:29:21;25.37;;;15.97;;
43519;SDS011;46848;51.980;5.918;2023-02-15T08:31:54;25.13;;;16.27;;
43519;SDS011;46848;51.980;5.918;2023-02-15T08:34:27;26.27;;;16.60;;
43519;SDS011;46848;51.980;5.918;2023-02-15T08:36:54;26.07;;;17.80;;
43519;SDS011;46848;51.980;5.918;2023-02-15T08:42:13;29.23;;;19.10;;
43519;SDS011;46848;51.980;5.918;2023-02-15T08:44:39;27.57;;;17.53;;
43519;SDS011;46848;51.980;5.918;2023-02-15T08:47:04;27.08;;;17.58;;
43519;SDS011;46848;51.980;5.918;2023-02-15T08:49:33;27.63;;;17.88;;
43519;SDS011;46848;51.980;5.918;2023-02-15T08:51:59;26.45;;;17.38;;
43519;SDS011;46848;51.980;5.918;2023-02-15T08:54:24;25.80;;;17.67;;
43519;SDS011;46848;51.980;5.918;2023-02-15T08:56:50;26.25;;;17.90;;
43519;SDS011;46848;51.980;5.918;2023-02-15T08:59:20;29.38;;;18.77;;
43519;SDS011;46848;51.980;5.918;2023-02-15T09:01:50;26.70;;;18.05;;
43519;SDS011;46848;51.980;5.918;2023-02-15T09:04:18;28.55;;;18.77;;
43519;SDS011;46848;51.980;5.918;2023-02-15T09:06:46;28.90;;;19.45;;
43519;SDS011;46848;51.980;5.918;2023-02-15T09:09:14;27.05;;;18.42;;
43519;SDS011;46848;51.980;5.918;2023-02-15T09:11:41;28.02;;;18.40;;
43519;SDS011;46848;51.980;5.918;2023-02-15T09:14:10;27.08;;;18.65;;
43519;SDS011;46848;51.980;5.918;2023-02-15T09:16:40;26.00;;;19.30;;
43519;SDS011;46848;51.980;5.918;2023-02-15T09:19:07;27.02;;;18.40;;
43519;SDS011;46848;51.980;5.918;2023-02-15T09:21:33;25.55;;;18.70;;
43519;SDS011;46848;51.980;5.918;2023-02-15T09:24:03;29.25;;;19.80;;
43519;SDS011;46848;51.980;5.918;2023-02-15T09:26:37;27.17;;;19.98;;
43519;SDS011;46848;51.980;5.918;2023-02-15T09:29:05;27.85;;;19.95;;
43519;SDS011;46848;51.980;5.918;2023-02-15T09:31:39;30.25;;;21.35;;
43519;SDS011;46848;51.980;5.918;2023-02-15T09:34:09;27.20;;;20.55;;
43519;SDS011;46848;51.980;5.918;2023-02-15T09:36:36;29.15;;;20.63;;
43519;SDS011;46848;51.980;5.918;2023-02-15T09:55:45;27.90;;;20.50;;
43519;SDS011;46848;51.980;5.918;2023-02-15T10:26:18;27.75;;;18.65;;
43519;SDS011;46848;51.980;5.918;2023-02-15T10:28:51;27.45;;;19.45;;
43519;SDS011;46848;51.980;5.918;2023-02-15T10:31:23;26.77;;;18.35;;
43519;SDS011;46848;51.980;5.918;2023-02-15T10:37:32;23.05;;;16.45;;
43519;SDS011;46848;51.980;5.918;2023-02-15T10:40:18;24.57;;;17.40;;
43519;SDS011;46848;51.980;5.918;2023-02-15T10:43:08;24.92;;;18.17;;
43519;SDS011;46848;51.980;5.918;2023-02-15T10:46:20;24.58;;;16.88;;
43519;SDS011;46848;51.980;5.918;2023-02-15T10:51:50;26.85;;;17.15;;
43519;SDS011;46848;51.980;5.918;2023-02-15T11:03:32;25.25;;;18.05;;
43519;SDS011;46848;51.980;5.918;2023-02-15T11:06:18;23.75;;;16.75;;
43519;SDS011;46848;51.980;5.918;2023-02-15T11:09:08;23.98;;;17.25;;
43519;SDS011;46848;51.980;5.918;2023-02-15T11:11:41;25.30;;;16.88;;
43519;SDS011;46848;51.980;5.918;2023-02-15T11:17:21;22.27;;;16.60;;
43519;SDS011;46848;51.980;5.918;2023-02-15T11:19:55;24.63;;;17.23;;
43519;SDS011;46848;51.980;5.918;2023-02-15T11:22:22;24.67;;;16.17;;
43519;SDS011;46848;51.980;5.918;2023-02-15T11:24:48;25.20;;;17.40;;
43519;SDS011;46848;51.980;5.918;2023-02-15T11:27:28;25.70;;;17.80;;
43519;SDS011;46848;51.980;5.918;2023-02-15T11:29:59;24.73;;;17.13;;
43519;SDS011;46848;51.980;5.918;2023-02-15T11:32:34;26.52;;;17.85;;
43519;SDS011;46848;51.980;5.918;2023-02-15T11:37:48;23.90;;;17.48;;
43519;SDS011;46848;51.980;5.918;2023-02-15T11:40:48;20.98;;;15.65;;
43519;SDS011;46848;51.980;5.918;2023-02-15T11:46:01;26.10;;;16.65;;
43519;SDS011;46848;51.980;5.918;2023-02-15T11:48:28;24.45;;;17.00;;
43519;SDS011;46848;51.980;5.918;2023-02-15T11:50:56;25.67;;;17.05;;
43519;SDS011;46848;51.980;5.918;2023-02-15T11:53:22;26.38;;;17.73;;
43519;SDS011;46848;51.980;5.918;2023-02-15T11:55:52;25.88;;;17.35;;
43519;SDS011;46848;51.980;5.918;2023-02-15T12:00:58;24.48;;;16.65;;
43519;SDS011;46848;51.980;5.918;2023-02-15T12:03:46;27.25;;;17.48;;
43519;SDS011;46848;51.980;5.918;2023-02-15T12:06:16;25.83;;;18.00;;
43519;SDS011;46848;51.980;5.918;2023-02-15T12:08:57;26.83;;;17.95;;
43519;SDS011;46848;51.980;5.918;2023-02-15T12:11:43;28.08;;;17.95;;
43519;SDS011;46848;51.980;5.918;2023-02-15T12:14:18;29.25;;;18.23;;
43519;SDS011;46848;51.980;5.918;2023-02-15T12:19:49;27.85;;;16.92;;
43519;SDS011;46848;51.980;5.918;2023-02-15T12:24:54;28.38;;;17.20;;
43519;SDS011;46848;51.980;5.918;2023-02-15T12:27:30;23.83;;;16.20;;
43519;SDS011;46848;51.980;5.918;2023-02-15T12:32:47;26.30;;;17.45;;
43519;SDS011;46848;51.980;5.918;2023-02-15T12:35:26;28.50;;;17.83;;
43519;SDS011;46848;51.980;5.918;2023-02-15T12:38:04;24.88;;;16.50;;
43519;SDS011;46848;51.980;5.918;2023-02-15T12:40:36;28.52;;;18.30;;
43519;SDS011;46848;51.980;5.918;2023-02-15T12:43:03;29.15;;;18.17;;
43519;SDS011;46848;51.980;5.918;2023-02-15T12:45:34;30.67;;;18.40;;
43519;SDS011;46848;51.980;5.918;2023-02-15T12:50:41;25.48;;;16.05;;
43519;SDS011;46848;51.980;5.918;2023-02-15T12:53:18;23.55;;;16.88;;
43519;SDS011;46848;51.980;5.918;2023-02-15T13:00:44;24.35;;;17.75;;
43519;SDS011;46848;51.980;5.918;2023-02-15T13:03:18;28.13;;;17.83;;
43519;SDS011;46848;51.980;5.918;2023-02-15T13:05:46;25.02;;;17.35;;
43519;SDS011;46848;51.980;5.918;2023-02-15T13:08:33;25.53;;;17.23;;
43519;SDS011;46848;51.980;5.918;2023-02-15T13:11:07;27.98;;;18.45;;
43519;SDS011;46848;51.980;5.918;2023-02-15T13:13:36;26.60;;;17.60;;
43519;SDS011;46848;51.980;5.918;2023-02-15T13:16:58;28.25;;;18.73;;
43519;SDS011;46848;51.980;5.918;2023-02-15T13:22:13;29.25;;;18.48;;
43519;SDS011;46848;51.980;5.918;2023-02-15T13:24:48;34.05;;;20.30;;
43519;SDS011;46848;51.980;5.918;2023-02-15T13:27:22;30.85;;;19.27;;
43519;SDS011;46848;51.980;5.918;2023-02-15T13:29:56;30.27;;;19.15;;
43519;SDS011;46848;51.980;5.918;2023-02-15T13:34:53;27.30;;;18.50;;
43519;SDS011;46848;51.980;5.918;2023-02-15T13:37:33;28.02;;;19.05;;
43519;SDS011;46848;51.980;5.918;2023-02-15T13:51:41;26.58;;;17.95;;
43519;SDS011;46848;51.980;5.918;2023-02-15T13:59:59;26.80;;;19.02;;
43519;SDS011;46848;51.980;5.918;2023-02-15T14:08:25;35.67;;;20.00;;
43519;SDS011;46848;51.980;5.918;2023-02-15T14:11:08;28.45;;;19.60;;
43519;SDS011;46848;51.980;5.918;2023-02-15T14:13:51;28.27;;;18.52;;
43519;SDS011;46848;51.980;5.918;2023-02-15T14:16:24;28.55;;;19.00;;
43519;SDS011;46848;51.980;5.918;2023-02-15T14:24:30;28.92;;;18.13;;
43519;SDS011;46848;51.980;5.918;2023-02-15T14:27:00;29.27;;;18.90;;
43519;SDS011;46848;51.980;5.918;2023-02-15T14:29:52;28.23;;;17.52;;
43519;SDS011;46848;51.980;5.918;2023-02-15T14:34:57;31.08;;;18.75;;
43519;SDS011;46848;51.980;5.918;2023-02-15T14:37:38;28.67;;;20.02;;
43519;SDS011;46848;51.980;5.918;2023-02-15T14:48:55;30.98;;;19.70;;
43519;SDS011;46848;51.980;5.918;2023-02-15T14:56:46;28.10;;;18.42;;
43519;SDS011;46848;51.980;5.918;2023-02-15T15:02:23;28.20;;;18.48;;
43519;SDS011;46848;51.980;5.918;2023-02-15T15:08:03;27.77;;;18.73;;
43519;SDS011;46848;51.980;5.918;2023-02-15T15:10:43;26.92;;;18.45;;
43519;SDS011;46848;51.980;5.918;2023-02-15T15:13:34;30.75;;;19.90;;
43519;SDS011;46848;51.980;5.918;2023-02-15T15:16:23;33.53;;;20.70;;
43519;SDS011;46848;51.980;5.918;2023-02-15T15:18:52;28.98;;;18.65;;
43519;SDS011;46848;51.980;5.918;2023-02-15T15:43:40;29.45;;;17.98;;
43519;SDS011;46848;51.980;5.918;2023-02-15T15:48:49;28.15;;;18.15;;
43519;SDS011;46848;51.980;5.918;2023-02-15T15:51:32;25.85;;;16.40;;
43519;SDS011;46848;51.980;5.918;2023-02-15T15:53:58;30.70;;;17.27;;
43519;SDS011;46848;51.980;5.918;2023-02-15T15:56:28;29.80;;;18.38;;
43519;SDS011;46848;51.980;5.918;2023-02-15T15:58:58;29.00;;;17.65;;
43519;SDS011;46848;51.980;5.918;2023-02-15T16:01:34;28.83;;;18.27;;
43519;SDS011;46848;51.980;5.918;2023-02-15T16:04:10;27.60;;;18.70;;
43519;SDS011;46848;51.980;5.918;2023-02-15T16:09:10;29.25;;;17.35;;
43519;SDS011;46848;51.980;5.918;2023-02-15T16:11:37;28.80;;;18.95;;
43519;SDS011;46848;51.980;5.918;2023-02-15T16:14:12;32.63;;;19.10;;
43519;SDS011;46848;51.980;5.918;2023-02-15T16:16:49;28.48;;;18.45;;
43519;SDS011;46848;51.980;5.918;2023-02-15T16:19:18;31.98;;;19.10;;
43519;SDS011;46848;51.980;5.918;2023-02-15T16:21:49;31.33;;;19.25;;
43519;SDS011;46848;51.980;5.918;2023-02-15T16:24:26;32.88;;;19.15;;
43519;SDS011;46848;51.980;5.918;2023-02-15T16:27:20;30.75;;;18.50;;
43519;SDS011;46848;51.980;5.918;2023-02-15T16:29:58;30.90;;;18.85;;
43519;SDS011;46848;51.980;5.918;2023-02-15T16:32:43;36.13;;;19.52;;
43519;SDS011;46848;51.980;5.918;2023-02-15T16:35:13;30.80;;;18.67;;
43519;SDS011;46848;51.980;5.918;2023-02-15T16:37:40;30.38;;;18.13;;
43519;SDS011;46848;51.980;5.918;2023-02-15T16:40:11;31.90;;;18.73;;
43519;SDS011;46848;51.980;5.918;2023-02-15T16:42:55;33.85;;;18.75;;
43519;SDS011;46848;51.980;5.918;2023-02-15T16:45:29;33.10;;;19.98;;
43519;SDS011;46848;51.980;5.918;2023-02-15T16:47:57;30.85;;;19.40;;
43519;SDS011;46848;51.980;5.918;2023-02-15T16:50:28;34.45;;;19.95;;
43519;SDS011;46848;51.980;5.918;2023-02-15T16:55:25;32.35;;;19.30;;
43519;SDS011;46848;51.980;5.918;2023-02-15T16:57:56;32.25;;;19.33;;
43519;SDS011;46848;51.980;5.918;2023-02-15T17:00:25;31.55;;;18.42;;
43519;SDS011;46848;51.980;5.918;2023-02-15T17:02:59;31.20;;;19.38;;
43519;SDS011;46848;51.980;5.918;2023-02-15T17:05:51;34.97;;;21.08;;
43519;SDS011;46848;51.980;5.918;2023-02-15T17:08:23;34.65;;;20.90;;
43519;SDS011;46848;51.980;5.918;2023-02-15T17:13:23;34.28;;;22.02;;
43519;SDS011;46848;51.980;5.918;2023-02-15T17:18:25;33.63;;;20.20;;
43519;SDS011;46848;51.980;5.918;2023-02-15T17:21:00;37.42;;;22.67;;
43519;SDS011;46848;51.980;5.918;2023-02-15T17:23:35;36.00;;;21.50;;
43519;SDS011;46848;51.980;5.918;2023-02-15T17:26:11;39.67;;;23.40;;
43519;SDS011;46848;51.980;5.918;2023-02-15T17:31:12;34.63;;;21.40;;
43519;SDS011;46848;51.980;5.918;2023-02-15T17:33:39;37.08;;;23.10;;
43519;SDS011;46848;51.980;5.918;2023-02-15T17:38:39;35.42;;;22.13;;
43519;SDS011;46848;51.980;5.918;2023-02-15T17:43:49;37.65;;;22.75;;
43519;SDS011;46848;51.980;5.918;2023-02-15T17:46:15;36.65;;;23.42;;
43519;SDS011;46848;51.980;5.918;2023-02-15T17:48:43;37.60;;;23.23;;
43519;SDS011;46848;51.980;5.918;2023-02-15T17:51:13;36.30;;;23.50;;
43519;SDS011;46848;51.980;5.918;2023-02-15T17:53:40;40.30;;;24.83;;
43519;SDS011;46848;51.980;5.918;2023-02-15T17:56:26;35.88;;;22.38;;
43519;SDS011;46848;51.980;5.918;2023-02-15T17:58:52;36.05;;;22.48;;
43519;SDS011;46848;51.980;5.918;2023-02-15T18:01:18;34.72;;;21.65;;
43519;SDS011;46848;51.980;5.918;2023-02-15T18:04:03;39.17;;;23.25;;
43519;SDS011;46848;51.980;5.918;2023-02-15T18:06:48;37.75;;;22.63;;
43519;SDS011;46848;51.980;5.918;2023-02-15T18:09:33;35.13;;;21.95;;
43519;SDS011;46848;51.980;5.918;2023-02-15T18:12:22;35.75;;;21.70;;
43519;SDS011;46848;51.980;5.918;2023-02-15T18:14:49;32.67;;;20.95;;
43519;SDS011;46848;51.980;5.918;2023-02-15T18:17:16;32.95;;;19.55;;
43519;SDS011;46848;51.980;5.918;2023-02-15T18:19:42;36.28;;;20.85;;
43519;SDS011;46848;51.980;5.918;2023-02-15T18:22:10;34.20;;;20.85;;